createdAt,value
2022-10-22T00:00:08.754Z,17.31
2022-10-22T00:02:36.098Z,17.39
2022-10-22T00:05:05.385Z,17.33
2022-10-22T00:07:32.652Z,17.52
2022-10-22T00:09:59.203Z,17.50
2022-10-22T00:12:26.513Z,17.44
2022-10-22T00:14:53.220Z,17.53
2022-10-22T00:17:20.503Z,17.51
2022-10-22T00:19:47.974Z,17.56
2022-10-22T00:22:17.352Z,17.56
2022-10-22T00:24:43.943Z,17.60
2022-10-22T00:27:12.508Z,17.56
2022-10-22T00:29:39.456Z,17.57
2022-10-22T00:32:06.533Z,17.60
2022-10-22T00:34:36.689Z,17.52
2022-10-22T00:37:03.528Z,17.49
2022-10-22T00:39:31.519Z,17.60
2022-10-22T00:41:59.311Z,17.55
2022-10-22T00:45:08.677Z,17.58
2022-10-22T00:47:39.462Z,17.61
2022-10-22T00:50:11.701Z,17.59
2022-10-22T00:52:39.419Z,17.75
2022-10-22T00:55:09.694Z,17.73
2022-10-22T00:57:36.949Z,17.86
2022-10-22T01:00:06.068Z,17.79
2022-10-22T01:02:32.993Z,17.86
2022-10-22T01:04:59.565Z,17.83
2022-10-22T01:07:26.940Z,17.94
2022-10-22T01:10:04.389Z,17.90
2022-10-22T01:12:43.059Z,17.71
2022-10-22T01:15:19.184Z,17.52
2022-10-22T01:17:55.762Z,17.62
2022-10-22T01:20:39.907Z,17.61
2022-10-22T01:23:21.836Z,17.61
2022-10-22T01:25:54.624Z,17.63
2022-10-22T01:28:37.655Z,17.65
2022-10-22T01:31:06.265Z,17.76
2022-10-22T01:33:33.660Z,17.70
2022-10-22T01:36:01.858Z,17.69
2022-10-22T01:38:29.701Z,17.74
2022-10-22T01:40:57.299Z,17.67
2022-10-22T01:43:24.026Z,17.71
2022-10-22T01:45:58.091Z,17.62
2022-10-22T01:48:36.666Z,17.77
2022-10-22T01:51:19.088Z,17.69
2022-10-22T01:53:53.973Z,17.59
2022-10-22T01:56:36.589Z,17.55
2022-10-22T01:59:12.864Z,17.59
2022-10-22T02:01:50.840Z,17.58
2022-10-22T02:04:22.840Z,17.53
2022-10-22T02:06:53.723Z,17.57
2022-10-22T02:09:24.061Z,17.51
2022-10-22T02:11:51.709Z,17.48
2022-10-22T02:14:20.247Z,17.43
2022-10-22T02:16:50.477Z,17.36
2022-10-22T02:19:22.923Z,17.35
2022-10-22T02:21:49.622Z,17.31
2022-10-22T02:24:17.016Z,17.53
2022-10-22T02:26:51.307Z,17.55
2022-10-22T02:29:25.620Z,17.43
2022-10-22T02:31:58.407Z,17.29
2022-10-22T02:34:31.598Z,17.19
2022-10-22T02:37:00.018Z,17.30
2022-10-22T02:39:27.307Z,17.35
2022-10-22T02:41:54.292Z,17.34
2022-10-22T02:44:22.399Z,17.27
2022-10-22T02:46:49.352Z,17.36
2022-10-22T02:49:17.826Z,17.38
2022-10-22T02:51:44.615Z,17.19
2022-10-22T02:54:11.301Z,17.17
2022-10-22T02:56:38.200Z,17.23
2022-10-22T02:59:04.768Z,17.12
2022-10-22T03:01:31.350Z,16.97
2022-10-22T03:03:57.933Z,17.02
2022-10-22T03:08:52.760Z,16.95
2022-10-22T03:11:19.656Z,16.78
2022-10-22T03:13:46.485Z,17.00
2022-10-22T03:16:13.691Z,16.97
2022-10-22T03:18:40.286Z,16.81
2022-10-22T03:21:13.734Z,16.82
2022-10-22T03:23:43.476Z,16.88
2022-10-22T03:26:13.080Z,16.83
2022-10-22T03:28:41.510Z,16.64
2022-10-22T03:31:08.264Z,16.72
2022-10-22T03:33:34.887Z,16.69
2022-10-22T03:36:02.080Z,16.63
2022-10-22T03:38:30.012Z,16.68
2022-10-22T03:40:58.592Z,16.77
2022-10-22T03:43:25.290Z,16.75
2022-10-22T03:45:52.780Z,16.84
2022-10-22T03:48:19.457Z,16.90
2022-10-22T03:50:47.859Z,16.75
2022-10-22T03:53:14.858Z,16.82
2022-10-22T03:55:42.288Z,16.73
2022-10-22T03:58:10.920Z,16.79
2022-10-22T04:00:37.540Z,16.81
2022-10-22T04:03:04.487Z,16.73
2022-10-22T04:05:32.665Z,16.61
2022-10-22T04:07:59.529Z,16.81
2022-10-22T04:10:26.561Z,16.77
2022-10-22T04:12:53.096Z,16.68
2022-10-22T04:15:21.595Z,16.54
2022-10-22T04:17:49.139Z,16.60
2022-10-22T04:20:16.105Z,16.77
2022-10-22T04:22:43.572Z,16.89
2022-10-22T04:25:10.692Z,16.73
2022-10-22T04:27:38.082Z,16.75
2022-10-22T04:30:06.152Z,16.83
2022-10-22T04:32:34.376Z,16.87
2022-10-22T04:35:01.264Z,16.79
2022-10-22T04:37:29.069Z,16.74
2022-10-22T04:39:58.101Z,16.79
2022-10-22T04:42:27.393Z,16.91
2022-10-22T04:44:54.275Z,16.97
2022-10-22T04:47:21.091Z,16.69
2022-10-22T04:49:49.160Z,16.66
2022-10-22T04:52:15.698Z,16.74
2022-10-22T04:54:42.519Z,16.80
2022-10-22T04:57:09.032Z,16.50
2022-10-22T04:59:35.846Z,16.70
2022-10-22T05:02:02.390Z,16.60
2022-10-22T05:04:29.049Z,16.46
2022-10-22T05:06:57.192Z,16.58
2022-10-22T05:09:23.745Z,16.57
2022-10-22T05:11:52.513Z,16.57
2022-10-22T05:14:21.078Z,16.52
2022-10-22T05:16:48.442Z,16.46
2022-10-22T05:19:19.256Z,16.49
2022-10-22T05:21:47.416Z,16.47
2022-10-22T05:24:15.810Z,16.46
2022-10-22T05:26:42.561Z,16.47
2022-10-22T05:29:09.138Z,16.27
2022-10-22T05:31:35.797Z,16.43
2022-10-22T05:34:02.460Z,16.37
2022-10-22T05:36:28.995Z,16.36
2022-10-22T05:38:56.963Z,16.31
2022-10-22T05:41:27.285Z,16.21
2022-10-22T05:43:55.786Z,16.32
2022-10-22T05:46:24.670Z,16.38
2022-10-22T05:48:53.607Z,16.18
2022-10-22T05:51:20.841Z,16.27
2022-10-22T05:53:51.966Z,16.21
2022-10-22T05:56:18.756Z,16.34
2022-10-22T05:58:47.250Z,16.29
2022-10-22T06:01:17.923Z,16.20
2022-10-22T06:03:45.476Z,16.23
2022-10-22T06:06:19.528Z,16.34
2022-10-22T06:08:47.344Z,16.21
2022-10-22T06:11:14.869Z,16.35
2022-10-22T06:13:41.811Z,16.37
2022-10-22T06:16:10.039Z,16.34
2022-10-22T06:18:36.618Z,16.29
2022-10-22T06:21:07.378Z,16.51
2022-10-22T06:23:34.496Z,16.61
2022-10-22T06:26:01.986Z,16.71
2022-10-22T06:28:29.103Z,16.97
2022-10-22T06:30:57.317Z,17.09
2022-10-22T06:33:25.313Z,17.07
2022-10-22T06:35:51.992Z,17.19
2022-10-22T06:38:19.194Z,17.30
2022-10-22T06:40:45.752Z,17.28
2022-10-22T06:43:13.070Z,17.38
2022-10-22T06:45:39.883Z,17.49
2022-10-22T06:48:07.298Z,17.58
2022-10-22T06:50:35.781Z,17.47
2022-10-22T06:53:04.985Z,17.48
2022-10-22T06:55:31.661Z,17.57
2022-10-22T06:57:58.164Z,17.42
2022-10-22T07:00:25.393Z,17.12
2022-10-22T07:02:54.327Z,17.27
2022-10-22T07:05:23.491Z,17.55
2022-10-22T07:07:52.184Z,17.98
2022-10-22T07:10:20.495Z,18.26
2022-10-22T07:12:47.069Z,18.67
2022-10-22T07:15:13.696Z,18.97
2022-10-22T07:17:42.492Z,19.34
2022-10-22T07:20:10.211Z,19.16
2022-10-22T07:22:36.722Z,19.72
2022-10-22T07:25:07.274Z,20.25
2022-10-22T07:27:34.084Z,20.73
2022-10-22T07:30:00.676Z,20.71
2022-10-22T07:32:27.243Z,20.96
2022-10-22T07:34:54.476Z,21.36
2022-10-22T07:37:21.094Z,21.60
2022-10-22T07:39:47.700Z,21.42
2022-10-22T07:42:16.440Z,21.27
2022-10-22T07:44:43.084Z,21.11
2022-10-22T07:47:09.716Z,21.20
2022-10-22T07:49:36.260Z,21.07
2022-10-22T07:52:03.626Z,21.04
2022-10-22T07:54:30.177Z,21.06
2022-10-22T07:56:56.965Z,21.08
2022-10-22T07:59:26.487Z,21.63
2022-10-22T08:01:53.130Z,21.74
2022-10-22T08:04:21.783Z,21.87
2022-10-22T08:06:48.412Z,22.00
2022-10-22T08:09:15.409Z,21.96
2022-10-22T08:11:42.401Z,21.80
2022-10-22T08:14:09.869Z,21.74
2022-10-22T08:16:37.935Z,21.58
2022-10-22T08:19:05.026Z,21.56
2022-10-22T08:21:32.746Z,21.53
2022-10-22T08:23:59.360Z,21.36
2022-10-22T08:26:26.226Z,20.79
2022-10-22T08:28:52.821Z,20.62
2022-10-22T08:31:19.412Z,20.68
2022-10-22T08:33:48.480Z,20.54
2022-10-22T08:36:15.674Z,20.40
2022-10-22T08:38:42.622Z,20.58
2022-10-22T08:41:12.853Z,20.55
2022-10-22T08:44:15.065Z,20.56
2022-10-22T08:46:54.291Z,20.72
2022-10-22T08:49:26.288Z,20.85
2022-10-22T08:51:53.263Z,20.85
2022-10-22T08:54:30.589Z,20.62
2022-10-22T08:57:10.040Z,20.72
2022-10-22T08:59:44.715Z,20.98
2022-10-22T09:02:25.179Z,20.73
2022-10-22T09:05:11.651Z,20.61
2022-10-22T09:07:43.310Z,20.56
2022-10-22T09:10:13.703Z,20.72
2022-10-22T09:12:43.619Z,20.78
2022-10-22T09:15:15.349Z,21.15
2022-10-22T09:17:56.841Z,21.53
2022-10-22T09:20:32.639Z,21.06
2022-10-22T09:23:12.734Z,21.50
2022-10-22T09:25:40.320Z,21.15
2022-10-22T09:28:09.300Z,20.92
2022-10-22T09:30:38.997Z,21.13
2022-10-22T09:33:13.159Z,21.38
2022-10-22T09:35:48.008Z,21.48
2022-10-22T09:38:16.328Z,21.50
2022-10-22T09:40:44.727Z,21.74
2022-10-22T09:43:13.596Z,21.67
2022-10-22T09:45:41.021Z,21.69
2022-10-22T09:48:18.612Z,21.35
2022-10-22T09:50:48.242Z,21.37
2022-10-22T09:53:20.052Z,21.51
2022-10-22T09:55:51.628Z,21.45
2022-10-22T09:58:19.193Z,21.23
2022-10-22T10:00:51.491Z,21.16
2022-10-22T10:03:19.630Z,21.18
2022-10-22T10:05:50.100Z,21.55
2022-10-22T10:08:18.375Z,21.35
2022-10-22T10:10:49.007Z,21.53
2022-10-22T10:13:30.795Z,21.25
2022-10-22T10:16:05.268Z,21.17
2022-10-22T10:18:43.982Z,21.05
2022-10-22T10:21:23.295Z,21.14
2022-10-22T10:24:00.358Z,21.23
2022-10-22T10:26:32.729Z,21.32
2022-10-22T10:29:15.233Z,21.20
2022-10-22T10:31:52.564Z,21.23
2022-10-22T10:34:29.903Z,21.45
2022-10-22T10:37:10.728Z,21.89
2022-10-22T10:39:52.215Z,21.81
2022-10-22T10:42:27.264Z,22.06
2022-10-22T10:45:07.839Z,22.23
2022-10-22T10:47:52.834Z,22.32
2022-10-22T10:50:27.165Z,22.39
2022-10-22T10:53:03.757Z,22.63
2022-10-22T10:55:33.923Z,22.66
2022-10-22T10:58:10.998Z,22.06
2022-10-22T11:00:47.474Z,22.62
2022-10-22T11:03:45.566Z,22.45
2022-10-22T11:06:15.833Z,22.45
2022-10-22T11:08:50.925Z,22.76
2022-10-22T11:11:22.900Z,22.37
2022-10-22T11:13:53.209Z,22.11
2022-10-22T11:16:24.908Z,22.17
2022-10-22T11:19:00.627Z,21.80
2022-10-22T11:21:32.346Z,21.54
2022-10-22T11:24:10.176Z,21.77
2022-10-22T11:26:44.233Z,21.79
2022-10-22T11:29:15.230Z,21.76
2022-10-22T11:31:42.924Z,22.07
2022-10-22T11:34:33.154Z,22.28
2022-10-22T11:37:01.456Z,22.05
2022-10-22T11:39:38.658Z,22.03
2022-10-22T11:42:09.179Z,21.89
2022-10-22T11:44:47.152Z,21.73
2022-10-22T11:47:19.097Z,21.87
2022-10-22T11:49:55.664Z,22.06
2022-10-22T11:52:26.229Z,21.78
2022-10-22T11:55:22.496Z,22.14
2022-10-22T11:57:49.109Z,22.36
2022-10-22T12:00:34.782Z,22.05
2022-10-22T12:03:15.445Z,22.13
2022-10-22T12:05:45.275Z,22.06
2022-10-22T12:08:26.299Z,22.11
2022-10-22T12:11:06.395Z,22.19
2022-10-22T12:13:53.142Z,22.77
2022-10-22T12:16:32.221Z,22.88
2022-10-22T12:19:15.368Z,22.89
2022-10-22T12:21:47.660Z,22.41
2022-10-22T12:24:17.029Z,22.28
2022-10-22T12:26:45.034Z,22.47
2022-10-22T12:29:14.080Z,22.34
2022-10-22T12:31:44.015Z,22.02
2022-10-22T12:34:16.004Z,21.97
2022-10-22T12:36:44.450Z,22.30
2022-10-22T12:39:14.164Z,22.21
2022-10-22T12:41:41.425Z,21.84
2022-10-22T12:44:12.232Z,22.06
2022-10-22T12:46:39.429Z,21.73
2022-10-22T12:49:13.722Z,21.71
2022-10-22T12:51:40.385Z,22.01
2022-10-22T12:54:15.190Z,21.56
2022-10-22T12:56:42.859Z,22.22
2022-10-22T12:59:17.895Z,22.14
2022-10-22T13:01:44.769Z,22.18
2022-10-22T13:04:33.599Z,22.34
2022-10-22T13:07:19.759Z,22.14
2022-10-22T13:09:58.066Z,21.92
2022-10-22T13:12:25.973Z,22.32
2022-10-22T13:14:56.426Z,22.24
2022-10-22T13:17:39.931Z,22.47
2022-10-22T13:20:17.831Z,22.45
2022-10-22T13:22:54.562Z,22.71
2022-10-22T13:25:26.392Z,22.70
2022-10-22T13:27:56.345Z,22.29
2022-10-22T13:30:28.191Z,22.47
2022-10-22T13:32:57.284Z,22.12
2022-10-22T13:35:26.067Z,22.46
2022-10-22T13:37:53.392Z,22.51
2022-10-22T13:40:20.700Z,22.10
2022-10-22T13:42:47.512Z,22.28
2022-10-22T13:45:14.907Z,22.43
2022-10-22T13:47:46.565Z,22.85
2022-10-22T13:50:15.292Z,22.66
2022-10-22T13:52:45.394Z,22.19
2022-10-22T13:55:18.290Z,21.92
2022-10-22T13:57:45.484Z,22.13
2022-10-22T14:00:14.745Z,22.17
2022-10-22T14:02:43.268Z,22.11
2022-10-22T14:05:10.736Z,22.14
2022-10-22T14:07:39.376Z,21.73
2022-10-22T14:10:18.291Z,21.76
2022-10-22T14:12:47.338Z,22.04
2022-10-22T14:15:18.890Z,21.86
2022-10-22T14:17:51.848Z,21.87
2022-10-22T14:20:22.069Z,21.75
2022-10-22T14:22:51.034Z,21.92
2022-10-22T14:25:20.039Z,22.10
2022-10-22T14:27:47.872Z,22.09
2022-10-22T14:30:19.685Z,22.08
2022-10-22T14:32:48.642Z,22.03
2022-10-22T14:35:17.738Z,21.93
2022-10-22T14:37:44.609Z,21.98
2022-10-22T14:40:15.978Z,21.93
2022-10-22T14:42:44.755Z,21.77
2022-10-22T14:45:16.539Z,21.79
2022-10-22T14:47:45.832Z,21.77
2022-10-22T14:50:16.042Z,21.72
2022-10-22T14:52:45.011Z,21.73
2022-10-22T14:55:13.626Z,21.51
2022-10-22T14:57:41.261Z,21.51
2022-10-22T15:00:11.783Z,21.60
2022-10-22T15:02:38.398Z,21.60
2022-10-22T15:05:07.466Z,21.53
2022-10-22T15:07:36.573Z,21.55
2022-10-22T15:10:05.221Z,21.55
2022-10-22T15:12:34.609Z,21.36
2022-10-22T15:15:02.300Z,21.42
2022-10-22T15:17:29.332Z,21.21
2022-10-22T15:19:55.962Z,21.09
2022-10-22T15:22:23.218Z,21.34
2022-10-22T15:24:52.041Z,21.30
2022-10-22T15:27:21.464Z,21.13
2022-10-22T15:29:48.399Z,20.95
2022-10-22T15:32:15.054Z,20.89
2022-10-22T15:34:41.697Z,20.85
2022-10-22T15:37:11.671Z,20.74
2022-10-22T15:39:39.418Z,20.53
2022-10-22T15:42:07.829Z,20.35
2022-10-22T15:44:34.854Z,20.28
2022-10-22T15:47:04.067Z,20.19
2022-10-22T15:49:30.668Z,20.07
2022-10-22T15:51:57.817Z,19.96
2022-10-22T15:54:26.277Z,19.91
2022-10-22T15:56:52.820Z,19.83
2022-10-22T15:59:21.626Z,19.64
2022-10-22T16:01:48.489Z,19.56
2022-10-22T16:04:15.731Z,19.39
2022-10-22T16:06:44.143Z,19.26
2022-10-22T16:09:12.712Z,19.14
2022-10-22T16:11:41.246Z,19.02
2022-10-22T16:14:11.070Z,18.96
2022-10-22T16:16:43.964Z,18.94
2022-10-22T16:19:11.689Z,18.85
2022-10-22T16:21:38.547Z,18.69
2022-10-22T16:24:06.635Z,18.70
2022-10-22T16:26:33.816Z,18.69
2022-10-22T16:29:00.343Z,18.68
2022-10-22T16:31:26.968Z,18.58
2022-10-22T16:33:55.219Z,18.49
2022-10-22T16:36:22.541Z,18.40
2022-10-22T16:38:49.625Z,18.29
2022-10-22T16:41:18.011Z,18.17
2022-10-22T16:43:46.321Z,18.07
2022-10-22T16:46:13.496Z,17.99
2022-10-22T16:48:43.963Z,17.93
2022-10-22T16:51:14.807Z,17.90
2022-10-22T16:53:44.204Z,17.88
2022-10-22T16:56:13.413Z,17.79
2022-10-22T16:58:44.546Z,17.76
2022-10-22T17:01:11.420Z,17.73
2022-10-22T17:03:38.659Z,17.68
2022-10-22T17:06:06.573Z,17.84
2022-10-22T17:08:37.071Z,17.73
2022-10-22T17:11:07.998Z,17.68
2022-10-22T17:13:35.281Z,17.62
2022-10-22T17:16:03.164Z,17.59
2022-10-22T17:18:30.043Z,17.62
2022-10-22T17:20:56.787Z,17.64
2022-10-22T17:23:26.004Z,17.62
2022-10-22T17:25:59.970Z,17.48
2022-10-22T17:28:26.969Z,17.47
2022-10-22T17:31:02.917Z,17.42
2022-10-22T17:33:29.518Z,17.32
2022-10-22T17:35:56.284Z,17.34
2022-10-22T17:38:24.358Z,17.22
2022-10-22T17:40:51.063Z,17.34
2022-10-22T17:43:19.099Z,17.39
2022-10-22T17:45:45.637Z,17.26
2022-10-22T17:48:12.338Z,17.31
2022-10-22T17:50:48.162Z,17.26
2022-10-22T17:53:17.454Z,17.32
2022-10-22T17:55:44.089Z,17.26
2022-10-22T17:58:15.812Z,17.18
2022-10-22T18:00:44.137Z,17.23
2022-10-22T18:03:10.849Z,17.25
2022-10-22T18:05:37.442Z,17.22
2022-10-22T18:08:06.967Z,17.23
2022-10-22T18:10:39.793Z,17.14
2022-10-22T18:13:07.027Z,17.08
2022-10-22T18:15:33.563Z,17.14
2022-10-22T18:18:01.580Z,17.12
2022-10-22T18:20:28.265Z,17.27
2022-10-22T18:22:55.936Z,17.27
2022-10-22T18:25:22.843Z,17.21
2022-10-22T18:27:49.999Z,17.18
2022-10-22T18:30:16.885Z,17.15
2022-10-22T18:32:44.596Z,17.21
2022-10-22T18:35:12.689Z,17.26
2022-10-22T18:37:39.645Z,17.47
2022-10-22T18:40:10.415Z,17.41
2022-10-22T18:42:39.802Z,17.29
2022-10-22T18:45:07.618Z,17.39
2022-10-22T18:47:34.188Z,17.30
2022-10-22T18:50:01.038Z,17.31
2022-10-22T18:52:29.248Z,17.35
2022-10-22T18:54:56.143Z,17.27
2022-10-22T18:57:22.669Z,17.33
2022-10-22T18:59:49.511Z,17.35
2022-10-22T19:02:16.948Z,17.35
2022-10-22T19:04:44.106Z,17.34
2022-10-22T19:07:11.186Z,17.31
2022-10-22T19:09:40.059Z,17.31
2022-10-22T19:12:09.237Z,17.36
2022-10-22T19:14:36.609Z,17.48
2022-10-22T19:17:03.848Z,17.41
2022-10-22T19:19:30.697Z,17.37
2022-10-22T19:21:57.482Z,17.34
2022-10-22T19:24:24.060Z,17.33
2022-10-22T19:26:52.529Z,17.13
2022-10-22T19:29:20.945Z,17.07
2022-10-22T19:31:47.599Z,17.11
2022-10-22T19:34:17.425Z,17.12
2022-10-22T19:36:44.409Z,17.07
2022-10-22T19:39:15.233Z,16.87
2022-10-22T19:41:42.376Z,16.97
2022-10-22T19:44:10.579Z,17.00
2022-10-22T19:46:38.453Z,16.98
2022-10-22T19:49:05.621Z,16.92
2022-10-22T19:51:32.853Z,16.90
2022-10-22T19:54:01.577Z,16.93
2022-10-22T19:56:29.016Z,16.92
2022-10-22T19:58:55.621Z,16.81
2022-10-22T20:01:24.711Z,16.80
2022-10-22T20:03:51.585Z,16.86
2022-10-22T20:06:19.589Z,16.88
2022-10-22T20:08:46.524Z,16.91
2022-10-22T20:11:17.655Z,16.97
2022-10-22T20:13:46.721Z,16.95
2022-10-22T20:16:18.152Z,16.94
2022-10-22T20:18:46.459Z,16.94
2022-10-22T20:21:15.873Z,16.95
2022-10-22T20:23:46.725Z,16.96
2022-10-22T20:26:13.425Z,16.95
2022-10-22T20:28:40.364Z,17.04
2022-10-22T20:31:11.008Z,16.94
2022-10-22T20:33:37.897Z,16.93
2022-10-22T20:36:09.048Z,16.97
2022-10-22T20:41:06.111Z,17.04
2022-10-22T20:43:33.195Z,17.08
2022-10-22T20:46:00.133Z,17.03
2022-10-22T20:48:28.581Z,17.03
2022-10-22T20:50:55.505Z,17.06
2022-10-22T20:53:24.278Z,16.97
2022-10-22T20:55:53.178Z,17.10
2022-10-22T20:58:23.331Z,17.13
2022-10-22T21:00:52.772Z,17.13
2022-10-22T21:03:19.473Z,17.10
2022-10-22T21:05:46.204Z,17.20
2022-10-22T21:08:12.770Z,17.11
2022-10-22T21:10:40.988Z,17.22
2022-10-22T21:13:10.213Z,17.16
2022-10-22T21:15:37.044Z,17.29
2022-10-22T21:18:04.279Z,17.20
2022-10-22T21:20:30.841Z,17.15
2022-10-22T21:22:57.479Z,17.18
2022-10-22T21:25:23.997Z,17.25
2022-10-22T21:27:53.314Z,17.14
2022-10-22T21:30:21.158Z,17.14
2022-10-22T21:32:47.709Z,17.17
2022-10-22T21:35:14.818Z,17.26
2022-10-22T21:37:41.709Z,17.29
2022-10-22T21:40:10.430Z,17.36
2022-10-22T21:42:36.995Z,17.19
2022-10-22T21:45:12.381Z,17.20
2022-10-22T21:47:42.884Z,17.26
2022-10-22T21:50:09.987Z,17.27
2022-10-22T21:52:36.943Z,17.29
2022-10-22T21:55:15.857Z,17.27
2022-10-22T21:57:43.723Z,17.30
2022-10-22T22:00:13.848Z,17.42
2022-10-22T22:02:41.066Z,17.29
2022-10-22T22:05:08.427Z,17.40
2022-10-22T22:07:35.751Z,17.39
2022-10-22T22:10:02.582Z,17.38
2022-10-22T22:12:29.202Z,17.30
2022-10-22T22:14:55.834Z,17.42
2022-10-22T22:17:24.017Z,17.36
2022-10-22T22:19:50.521Z,17.38
2022-10-22T22:22:18.683Z,17.34
2022-10-22T22:24:45.320Z,17.43
2022-10-22T22:27:11.851Z,17.36
2022-10-22T22:29:38.437Z,17.27
2022-10-22T22:32:05.414Z,17.32
2022-10-22T22:34:33.301Z,17.31
2022-10-22T22:36:59.976Z,17.26
2022-10-22T22:39:26.548Z,17.29
2022-10-22T22:41:53.319Z,17.26
2022-10-22T22:44:20.649Z,17.34
2022-10-22T22:46:47.200Z,17.29
2022-10-22T22:49:13.975Z,17.32
2022-10-22T22:51:41.962Z,17.36
2022-10-22T22:54:09.916Z,17.30
2022-10-22T22:56:38.091Z,17.20
2022-10-22T22:59:05.837Z,17.29
2022-10-22T23:01:34.619Z,17.30
2022-10-22T23:04:04.573Z,17.37
2022-10-22T23:06:33.636Z,17.37
2022-10-22T23:09:03.914Z,17.33
2022-10-22T23:11:30.926Z,17.38
2022-10-22T23:13:58.873Z,17.43
2022-10-22T23:16:28.390Z,17.42
2022-10-22T23:18:56.314Z,17.41
2022-10-22T23:21:25.703Z,17.45
2022-10-22T23:23:56.092Z,17.42
2022-10-22T23:26:27.555Z,17.41
2022-10-22T23:28:54.435Z,17.46
2022-10-22T23:31:21.702Z,17.36
2022-10-22T23:33:49.760Z,17.42
2022-10-22T23:36:16.536Z,17.36
2022-10-22T23:38:43.151Z,17.43
2022-10-22T23:41:09.848Z,17.22
2022-10-22T23:43:38.567Z,17.24
2022-10-22T23:46:06.678Z,17.11
2022-10-22T23:48:36.102Z,17.24
2022-10-22T23:51:06.611Z,17.18
2022-10-22T23:53:33.262Z,17.16
2022-10-22T23:56:04.495Z,17.04
2022-10-22T23:58:31.115Z,17.02
